sensor_id;sensor_type;location;lat;lon;timestamp;P1;durP1;ratioP1;P2;durP2;ratioP2
17564;SDS011;62994;52.126;5.596;2022-08-21T00:00:50;6.68;;;5.03;;
17564;SDS011;62994;52.126;5.596;2022-08-21T00:03:17;5.55;;;5.13;;
17564;SDS011;62994;52.126;5.596;2022-08-21T00:05:44;6.00;;;5.40;;
17564;SDS011;62994;52.126;5.596;2022-08-21T00:08:14;5.70;;;4.95;;
17564;SDS011;62994;52.126;5.596;2022-08-21T00:10:41;8.82;;;5.38;;
17564;SDS011;62994;52.126;5.596;2022-08-21T00:13:11;5.05;;;4.65;;
17564;SDS011;62994;52.126;5.596;2022-08-21T00:15:40;5.25;;;4.72;;
17564;SDS011;62994;52.126;5.596;2022-08-21T00:18:08;6.43;;;5.05;;
17564;SDS011;62994;52.126;5.596;2022-08-21T00:20:37;7.13;;;4.82;;
17564;SDS011;62994;52.126;5.596;2022-08-21T00:23:04;5.03;;;4.70;;
17564;SDS011;62994;52.126;5.596;2022-08-21T00:25:32;5.35;;;4.93;;
17564;SDS011;62994;52.126;5.596;2022-08-21T00:27:59;5.18;;;4.85;;
17564;SDS011;62994;52.126;5.596;2022-08-21T00:30:28;5.93;;;5.53;;
17564;SDS011;62994;52.126;5.596;2022-08-21T00:32:56;5.93;;;4.90;;
17564;SDS011;62994;52.126;5.596;2022-08-21T00:35:24;5.47;;;5.07;;
17564;SDS011;62994;52.126;5.596;2022-08-21T00:37:54;4.97;;;4.65;;
17564;SDS011;62994;52.126;5.596;2022-08-21T00:40:23;6.93;;;5.25;;
17564;SDS011;62994;52.126;5.596;2022-08-21T00:42:53;6.25;;;5.15;;
17564;SDS011;62994;52.126;5.596;2022-08-21T00:45:21;5.47;;;5.07;;
17564;SDS011;62994;52.126;5.596;2022-08-21T00:47:50;6.38;;;5.70;;
17564;SDS011;62994;52.126;5.596;2022-08-21T00:50:19;5.47;;;5.07;;
17564;SDS011;62994;52.126;5.596;2022-08-21T00:52:46;7.28;;;5.32;;
17564;SDS011;62994;52.126;5.596;2022-08-21T00:55:13;6.65;;;5.80;;
17564;SDS011;62994;52.126;5.596;2022-08-21T00:57:42;11.38;;;5.90;;
17564;SDS011;62994;52.126;5.596;2022-08-21T01:00:18;6.60;;;5.95;;
17564;SDS011;62994;52.126;5.596;2022-08-21T01:02:47;6.57;;;5.97;;
17564;SDS011;62994;52.126;5.596;2022-08-21T01:05:15;5.82;;;5.43;;
17564;SDS011;62994;52.126;5.596;2022-08-21T01:07:42;6.18;;;5.57;;
17564;SDS011;62994;52.126;5.596;2022-08-21T01:10:10;6.75;;;6.15;;
17564;SDS011;62994;52.126;5.596;2022-08-21T01:12:37;6.32;;;5.93;;
17564;SDS011;62994;52.126;5.596;2022-08-21T01:15:07;6.95;;;5.90;;
17564;SDS011;62994;52.126;5.596;2022-08-21T01:17:36;5.80;;;5.35;;
17564;SDS011;62994;52.126;5.596;2022-08-21T01:20:04;7.10;;;6.32;;
17564;SDS011;62994;52.126;5.596;2022-08-21T01:22:35;7.40;;;6.13;;
17564;SDS011;62994;52.126;5.596;2022-08-21T01:25:02;9.25;;;6.70;;
17564;SDS011;62994;52.126;5.596;2022-08-21T01:27:30;6.97;;;6.38;;
17564;SDS011;62994;52.126;5.596;2022-08-21T01:29:58;6.30;;;5.90;;
17564;SDS011;62994;52.126;5.596;2022-08-21T01:32:28;7.75;;;7.13;;
17564;SDS011;62994;52.126;5.596;2022-08-21T01:34:56;6.82;;;6.28;;
17564;SDS011;62994;52.126;5.596;2022-08-21T01:37:22;8.85;;;6.13;;
17564;SDS011;62994;52.126;5.596;2022-08-21T01:39:51;8.05;;;7.25;;
17564;SDS011;62994;52.126;5.596;2022-08-21T01:42:18;7.18;;;6.47;;
17564;SDS011;62994;52.126;5.596;2022-08-21T01:44:45;6.70;;;5.97;;
17564;SDS011;62994;52.126;5.596;2022-08-21T01:47:13;8.00;;;6.43;;
17564;SDS011;62994;52.126;5.596;2022-08-21T01:49:41;9.43;;;6.97;;
17564;SDS011;62994;52.126;5.596;2022-08-21T01:52:08;7.30;;;6.53;;
17564;SDS011;62994;52.126;5.596;2022-08-21T01:54:36;9.60;;;6.88;;
17564;SDS011;62994;52.126;5.596;2022-08-21T01:57:06;9.30;;;6.78;;
17564;SDS011;62994;52.126;5.596;2022-08-21T01:59:34;9.05;;;6.50;;
17564;SDS011;62994;52.126;5.596;2022-08-21T02:02:02;7.97;;;6.90;;
17564;SDS011;62994;52.126;5.596;2022-08-21T02:04:29;7.05;;;6.60;;
17564;SDS011;62994;52.126;5.596;2022-08-21T02:06:56;6.65;;;5.97;;
17564;SDS011;62994;52.126;5.596;2022-08-21T02:09:23;7.78;;;6.97;;
17564;SDS011;62994;52.126;5.596;2022-08-21T02:11:50;7.57;;;6.47;;
17564;SDS011;62994;52.126;5.596;2022-08-21T02:14:19;7.32;;;6.65;;
17564;SDS011;62994;52.126;5.596;2022-08-21T02:16:48;7.45;;;6.70;;
17564;SDS011;62994;52.126;5.596;2022-08-21T02:19:15;7.38;;;6.72;;
17564;SDS011;62994;52.126;5.596;2022-08-21T02:21:42;7.03;;;6.57;;
17564;SDS011;62994;52.126;5.596;2022-08-21T02:24:10;6.53;;;6.13;;
17564;SDS011;62994;52.126;5.596;2022-08-21T02:26:41;7.68;;;7.18;;
17564;SDS011;62994;52.126;5.596;2022-08-21T02:29:08;6.72;;;6.22;;
17564;SDS011;62994;52.126;5.596;2022-08-21T02:31:36;7.82;;;7.13;;
17564;SDS011;62994;52.126;5.596;2022-08-21T02:34:03;6.53;;;6.13;;
17564;SDS011;62994;52.126;5.596;2022-08-21T02:36:30;7.22;;;6.50;;
17564;SDS011;62994;52.126;5.596;2022-08-21T02:38:57;6.63;;;6.07;;
17564;SDS011;62994;52.126;5.596;2022-08-21T02:41:25;9.30;;;6.72;;
17564;SDS011;62994;52.126;5.596;2022-08-21T02:43:52;7.30;;;6.82;;
17564;SDS011;62994;52.126;5.596;2022-08-21T02:46:19;12.45;;;7.93;;
17564;SDS011;62994;52.126;5.596;2022-08-21T02:48:48;8.57;;;7.03;;
17564;SDS011;62994;52.126;5.596;2022-08-21T02:51:16;7.00;;;6.50;;
17564;SDS011;62994;52.126;5.596;2022-08-21T02:53:45;7.13;;;6.53;;
17564;SDS011;62994;52.126;5.596;2022-08-21T02:56:14;7.75;;;7.22;;
17564;SDS011;62994;52.126;5.596;2022-08-21T02:58:45;8.07;;;7.32;;
17564;SDS011;62994;52.126;5.596;2022-08-21T03:01:12;7.95;;;7.35;;
17564;SDS011;62994;52.126;5.596;2022-08-21T03:03:42;7.53;;;7.03;;
17564;SDS011;62994;52.126;5.596;2022-08-21T03:06:12;7.38;;;6.88;;
17564;SDS011;62994;52.126;5.596;2022-08-21T03:08:41;7.07;;;6.53;;
17564;SDS011;62994;52.126;5.596;2022-08-21T03:11:10;8.70;;;7.45;;
17564;SDS011;62994;52.126;5.596;2022-08-21T03:13:37;11.23;;;7.30;;
17564;SDS011;62994;52.126;5.596;2022-08-21T03:16:05;9.20;;;7.60;;
17564;SDS011;62994;52.126;5.596;2022-08-21T03:18:32;7.72;;;7.07;;
17564;SDS011;62994;52.126;5.596;2022-08-21T03:21:00;8.20;;;7.45;;
17564;SDS011;62994;52.126;5.596;2022-08-21T03:23:28;7.78;;;7.22;;
17564;SDS011;62994;52.126;5.596;2022-08-21T03:25:57;7.65;;;7.05;;
17564;SDS011;62994;52.126;5.596;2022-08-21T03:28:24;8.27;;;7.57;;
17564;SDS011;62994;52.126;5.596;2022-08-21T03:30:52;7.72;;;7.10;;
17564;SDS011;62994;52.126;5.596;2022-08-21T03:33:19;7.30;;;6.72;;
17564;SDS011;62994;52.126;5.596;2022-08-21T03:35:48;7.85;;;7.35;;
17564;SDS011;62994;52.126;5.596;2022-08-21T03:38:22;8.10;;;7.35;;
17564;SDS011;62994;52.126;5.596;2022-08-21T03:40:51;7.90;;;7.10;;
17564;SDS011;62994;52.126;5.596;2022-08-21T03:43:18;8.75;;;7.47;;
17564;SDS011;62994;52.126;5.596;2022-08-21T03:45:45;7.53;;;7.03;;
17564;SDS011;62994;52.126;5.596;2022-08-21T03:48:12;9.45;;;6.97;;
17564;SDS011;62994;52.126;5.596;2022-08-21T03:50:41;8.00;;;7.28;;
17564;SDS011;62994;52.126;5.596;2022-08-21T03:53:09;9.57;;;7.00;;
17564;SDS011;62994;52.126;5.596;2022-08-21T03:55:37;7.90;;;7.25;;
17564;SDS011;62994;52.126;5.596;2022-08-21T03:58:06;8.13;;;7.45;;
17564;SDS011;62994;52.126;5.596;2022-08-21T04:00:33;7.80;;;7.00;;
17564;SDS011;62994;52.126;5.596;2022-08-21T04:03:00;9.20;;;7.00;;
17564;SDS011;62994;52.126;5.596;2022-08-21T04:05:27;8.50;;;7.68;;
17564;SDS011;62994;52.126;5.596;2022-08-21T04:07:57;8.25;;;7.50;;
17564;SDS011;62994;52.126;5.596;2022-08-21T04:10:26;8.43;;;7.72;;
17564;SDS011;62994;52.126;5.596;2022-08-21T04:12:54;7.75;;;7.35;;
17564;SDS011;62994;52.126;5.596;2022-08-21T04:15:23;8.35;;;7.68;;
17564;SDS011;62994;52.126;5.596;2022-08-21T04:17:51;8.23;;;7.40;;
17564;SDS011;62994;52.126;5.596;2022-08-21T04:20:18;9.88;;;7.28;;
17564;SDS011;62994;52.126;5.596;2022-08-21T04:22:46;9.68;;;7.38;;
17564;SDS011;62994;52.126;5.596;2022-08-21T04:25:14;12.95;;;7.88;;
17564;SDS011;62994;52.126;5.596;2022-08-21T04:27:41;8.23;;;7.47;;
17564;SDS011;62994;52.126;5.596;2022-08-21T04:30:09;7.75;;;7.00;;
17564;SDS011;62994;52.126;5.596;2022-08-21T04:32:41;8.88;;;7.90;;
17564;SDS011;62994;52.126;5.596;2022-08-21T04:35:10;7.18;;;6.78;;
17564;SDS011;62994;52.126;5.596;2022-08-21T04:37:37;7.30;;;6.78;;
17564;SDS011;62994;52.126;5.596;2022-08-21T04:40:05;7.90;;;7.03;;
17564;SDS011;62994;52.126;5.596;2022-08-21T04:42:40;8.73;;;8.00;;
17564;SDS011;62994;52.126;5.596;2022-08-21T04:45:08;8.35;;;7.68;;
17564;SDS011;62994;52.126;5.596;2022-08-21T04:47:35;8.30;;;7.53;;
17564;SDS011;62994;52.126;5.596;2022-08-21T04:50:04;8.32;;;7.15;;
17564;SDS011;62994;52.126;5.596;2022-08-21T04:52:32;7.85;;;7.25;;
17564;SDS011;62994;52.126;5.596;2022-08-21T04:54:59;9.57;;;7.80;;
17564;SDS011;62994;52.126;5.596;2022-08-21T04:57:27;9.10;;;7.57;;
17564;SDS011;62994;52.126;5.596;2022-08-21T04:59:54;7.78;;;7.05;;
17564;SDS011;62994;52.126;5.596;2022-08-21T05:02:21;10.18;;;7.22;;
17564;SDS011;62994;52.126;5.596;2022-08-21T05:04:48;11.10;;;7.85;;
17564;SDS011;62994;52.126;5.596;2022-08-21T05:07:25;8.02;;;7.22;;
17564;SDS011;62994;52.126;5.596;2022-08-21T05:09:55;11.95;;;7.50;;
17564;SDS011;62994;52.126;5.596;2022-08-21T05:12:22;9.63;;;7.05;;
17564;SDS011;62994;52.126;5.596;2022-08-21T05:14:49;11.60;;;7.45;;
17564;SDS011;62994;52.126;5.596;2022-08-21T05:17:16;15.98;;;7.30;;
17564;SDS011;62994;52.126;5.596;2022-08-21T05:19:43;8.38;;;7.30;;
17564;SDS011;62994;52.126;5.596;2022-08-21T05:22:10;8.90;;;7.47;;
17564;SDS011;62994;52.126;5.596;2022-08-21T05:24:39;8.23;;;7.57;;
17564;SDS011;62994;52.126;5.596;2022-08-21T05:27:06;8.50;;;7.75;;
17564;SDS011;62994;52.126;5.596;2022-08-21T05:29:33;9.32;;;7.72;;
17564;SDS011;62994;52.126;5.596;2022-08-21T05:32:00;11.32;;;7.85;;
17564;SDS011;62994;52.126;5.596;2022-08-21T05:34:27;7.90;;;7.20;;
17564;SDS011;62994;52.126;5.596;2022-08-21T05:36:54;10.05;;;7.25;;
17564;SDS011;62994;52.126;5.596;2022-08-21T05:39:20;12.80;;;7.38;;
17564;SDS011;62994;52.126;5.596;2022-08-21T05:41:49;10.02;;;7.07;;
17564;SDS011;62994;52.126;5.596;2022-08-21T05:44:16;8.10;;;7.35;;
17564;SDS011;62994;52.126;5.596;2022-08-21T05:46:43;8.45;;;7.50;;
17564;SDS011;62994;52.126;5.596;2022-08-21T05:49:10;8.73;;;7.93;;
17564;SDS011;62994;52.126;5.596;2022-08-21T05:51:39;8.52;;;7.70;;
17564;SDS011;62994;52.126;5.596;2022-08-21T05:54:06;13.43;;;8.13;;
17564;SDS011;62994;52.126;5.596;2022-08-21T05:56:33;9.20;;;7.85;;
17564;SDS011;62994;52.126;5.596;2022-08-21T05:59:02;8.40;;;7.18;;
17564;SDS011;62994;52.126;5.596;2022-08-21T06:01:29;9.02;;;8.10;;
17564;SDS011;62994;52.126;5.596;2022-08-21T06:03:56;8.27;;;7.60;;
17564;SDS011;62994;52.126;5.596;2022-08-21T06:06:23;8.32;;;7.57;;
17564;SDS011;62994;52.126;5.596;2022-08-21T06:08:50;10.23;;;8.05;;
17564;SDS011;62994;52.126;5.596;2022-08-21T06:11:18;9.75;;;8.40;;
17564;SDS011;62994;52.126;5.596;2022-08-21T06:13:45;8.80;;;7.25;;
17564;SDS011;62994;52.126;5.596;2022-08-21T06:16:14;9.52;;;8.63;;
17564;SDS011;62994;52.126;5.596;2022-08-21T06:18:43;8.75;;;7.88;;
17564;SDS011;62994;52.126;5.596;2022-08-21T06:21:11;8.48;;;7.05;;
17564;SDS011;62994;52.126;5.596;2022-08-21T06:23:39;8.88;;;8.05;;
17564;SDS011;62994;52.126;5.596;2022-08-21T06:26:07;11.07;;;7.78;;
17564;SDS011;62994;52.126;5.596;2022-08-21T06:28:36;8.35;;;7.45;;
17564;SDS011;62994;52.126;5.596;2022-08-21T06:31:09;13.27;;;7.57;;
17564;SDS011;62994;52.126;5.596;2022-08-21T06:33:40;8.15;;;6.60;;
17564;SDS011;62994;52.126;5.596;2022-08-21T06:36:10;7.38;;;6.75;;
17564;SDS011;62994;52.126;5.596;2022-08-21T06:38:37;7.60;;;6.68;;
17564;SDS011;62994;52.126;5.596;2022-08-21T06:41:05;9.20;;;6.95;;
17564;SDS011;62994;52.126;5.596;2022-08-21T06:43:32;9.02;;;7.13;;
17564;SDS011;62994;52.126;5.596;2022-08-21T06:46:00;8.70;;;7.03;;
17564;SDS011;62994;52.126;5.596;2022-08-21T06:48:28;7.80;;;6.55;;
17564;SDS011;62994;52.126;5.596;2022-08-21T06:50:57;10.98;;;6.50;;
17564;SDS011;62994;52.126;5.596;2022-08-21T06:53:25;7.75;;;7.15;;
17564;SDS011;62994;52.126;5.596;2022-08-21T06:55:52;13.43;;;7.20;;
17564;SDS011;62994;52.126;5.596;2022-08-21T06:58:19;7.43;;;6.57;;
17564;SDS011;62994;52.126;5.596;2022-08-21T07:00:47;9.75;;;6.00;;
17564;SDS011;62994;52.126;5.596;2022-08-21T07:03:25;10.85;;;6.13;;
17564;SDS011;62994;52.126;5.596;2022-08-21T07:06:13;9.27;;;6.70;;
17564;SDS011;62994;52.126;5.596;2022-08-21T07:08:40;7.80;;;6.40;;
17564;SDS011;62994;52.126;5.596;2022-08-21T07:11:09;9.27;;;6.10;;
17564;SDS011;62994;52.126;5.596;2022-08-21T07:13:38;6.60;;;6.03;;
17564;SDS011;62994;52.126;5.596;2022-08-21T07:16:06;6.15;;;5.55;;
17564;SDS011;62994;52.126;5.596;2022-08-21T07:18:33;11.57;;;6.32;;
17564;SDS011;62994;52.126;5.596;2022-08-21T07:21:02;16.30;;;6.60;;
17564;SDS011;62994;52.126;5.596;2022-08-21T07:23:30;12.82;;;6.50;;
17564;SDS011;62994;52.126;5.596;2022-08-21T07:25:59;6.05;;;5.57;;
17564;SDS011;62994;52.126;5.596;2022-08-21T07:28:27;11.85;;;6.50;;
17564;SDS011;62994;52.126;5.596;2022-08-21T07:30:57;12.82;;;6.88;;
17564;SDS011;62994;52.126;5.596;2022-08-21T07:33:26;11.40;;;6.45;;
17564;SDS011;62994;52.126;5.596;2022-08-21T07:35:54;9.52;;;6.45;;
17564;SDS011;62994;52.126;5.596;2022-08-21T07:38:23;14.57;;;6.88;;
17564;SDS011;62994;52.126;5.596;2022-08-21T07:40:50;12.10;;;6.15;;
17564;SDS011;62994;52.126;5.596;2022-08-21T07:43:18;10.15;;;6.05;;
17564;SDS011;62994;52.126;5.596;2022-08-21T07:45:46;9.80;;;5.78;;
17564;SDS011;62994;52.126;5.596;2022-08-21T07:48:14;8.88;;;6.55;;
17564;SDS011;62994;52.126;5.596;2022-08-21T07:50:42;10.30;;;6.15;;
17564;SDS011;62994;52.126;5.596;2022-08-21T07:53:09;11.93;;;6.40;;
17564;SDS011;62994;52.126;5.596;2022-08-21T07:55:38;15.77;;;6.72;;
17564;SDS011;62994;52.126;5.596;2022-08-21T07:58:07;13.82;;;6.20;;
17564;SDS011;62994;52.126;5.596;2022-08-21T08:00:35;11.27;;;6.18;;
17564;SDS011;62994;52.126;5.596;2022-08-21T08:03:02;14.18;;;6.43;;
17564;SDS011;62994;52.126;5.596;2022-08-21T08:05:29;12.30;;;6.25;;
17564;SDS011;62994;52.126;5.596;2022-08-21T08:07:57;15.98;;;6.88;;
17564;SDS011;62994;52.126;5.596;2022-08-21T08:10:25;12.45;;;5.97;;
17564;SDS011;62994;52.126;5.596;2022-08-21T08:12:53;8.73;;;6.18;;
17564;SDS011;62994;52.126;5.596;2022-08-21T08:15:21;13.68;;;6.55;;
17564;SDS011;62994;52.126;5.596;2022-08-21T08:17:50;7.55;;;5.93;;
17564;SDS011;62994;52.126;5.596;2022-08-21T08:20:17;12.00;;;5.70;;
17564;SDS011;62994;52.126;5.596;2022-08-21T08:22:45;12.45;;;6.25;;
17564;SDS011;62994;52.126;5.596;2022-08-21T08:25:12;11.48;;;6.13;;
17564;SDS011;62994;52.126;5.596;2022-08-21T08:27:43;14.85;;;6.00;;
17564;SDS011;62994;52.126;5.596;2022-08-21T08:30:13;12.73;;;5.60;;
17564;SDS011;62994;52.126;5.596;2022-08-21T08:32:43;11.20;;;5.90;;
17564;SDS011;62994;52.126;5.596;2022-08-21T08:35:10;10.95;;;5.28;;
17564;SDS011;62994;52.126;5.596;2022-08-21T08:37:38;12.93;;;6.28;;
17564;SDS011;62994;52.126;5.596;2022-08-21T08:40:07;8.20;;;5.00;;
17564;SDS011;62994;52.126;5.596;2022-08-21T08:42:38;7.50;;;4.80;;
17564;SDS011;62994;52.126;5.596;2022-08-21T08:45:06;8.15;;;4.70;;
17564;SDS011;62994;52.126;5.596;2022-08-21T08:47:38;13.50;;;5.72;;
17564;SDS011;62994;52.126;5.596;2022-08-21T08:50:11;10.88;;;5.45;;
17564;SDS011;62994;52.126;5.596;2022-08-21T08:52:47;11.48;;;5.20;;
17564;SDS011;62994;52.126;5.596;2022-08-21T08:55:21;10.20;;;4.75;;
17564;SDS011;62994;52.126;5.596;2022-08-21T08:57:51;8.48;;;4.80;;
17564;SDS011;62994;52.126;5.596;2022-08-21T09:00:21;8.07;;;5.32;;
17564;SDS011;62994;52.126;5.596;2022-08-21T09:02:50;6.07;;;4.72;;
17564;SDS011;62994;52.126;5.596;2022-08-21T09:05:22;4.88;;;3.80;;
17564;SDS011;62994;52.126;5.596;2022-08-21T09:07:57;7.80;;;4.85;;
17564;SDS011;62994;52.126;5.596;2022-08-21T09:10:38;11.05;;;4.63;;
17564;SDS011;62994;52.126;5.596;2022-08-21T09:13:24;5.32;;;3.83;;
17564;SDS011;62994;52.126;5.596;2022-08-21T09:15:59;8.38;;;4.00;;
17564;SDS011;62994;52.126;5.596;2022-08-21T09:18:35;7.75;;;3.70;;
17564;SDS011;62994;52.126;5.596;2022-08-21T09:21:12;8.07;;;3.38;;
17564;SDS011;62994;52.126;5.596;2022-08-21T09:23:49;7.70;;;3.50;;
17564;SDS011;62994;52.126;5.596;2022-08-21T09:26:25;5.40;;;3.13;;
17564;SDS011;62994;52.126;5.596;2022-08-21T09:28:54;5.82;;;3.13;;
17564;SDS011;62994;52.126;5.596;2022-08-21T09:31:23;7.38;;;3.25;;
17564;SDS011;62994;52.126;5.596;2022-08-21T09:33:58;9.05;;;3.58;;
17564;SDS011;62994;52.126;5.596;2022-08-21T09:36:29;7.43;;;3.53;;
17564;SDS011;62994;52.126;5.596;2022-08-21T09:39:02;6.00;;;3.33;;
17564;SDS011;62994;52.126;5.596;2022-08-21T09:41:31;8.52;;;3.15;;
17564;SDS011;62994;52.126;5.596;2022-08-21T09:44:00;10.68;;;3.35;;
17564;SDS011;62994;52.126;5.596;2022-08-21T09:46:28;6.65;;;3.10;;
17564;SDS011;62994;52.126;5.596;2022-08-21T09:49:00;3.10;;;2.40;;
17564;SDS011;62994;52.126;5.596;2022-08-21T09:51:30;6.13;;;2.97;;
17564;SDS011;62994;52.126;5.596;2022-08-21T09:54:08;7.22;;;2.45;;
17564;SDS011;62994;52.126;5.596;2022-08-21T09:56:51;8.35;;;3.13;;
17564;SDS011;62994;52.126;5.596;2022-08-21T09:59:39;4.78;;;3.10;;
17564;SDS011;62994;52.126;5.596;2022-08-21T10:02:22;4.72;;;2.83;;
17564;SDS011;62994;52.126;5.596;2022-08-21T10:04:56;7.05;;;2.80;;
17564;SDS011;62994;52.126;5.596;2022-08-21T10:07:25;7.78;;;2.90;;
17564;SDS011;62994;52.126;5.596;2022-08-21T10:10:02;6.50;;;2.40;;
17564;SDS011;62994;52.126;5.596;2022-08-21T10:12:33;5.97;;;2.42;;
17564;SDS011;62994;52.126;5.596;2022-08-21T10:15:10;6.03;;;2.78;;
17564;SDS011;62994;52.126;5.596;2022-08-21T10:17:48;3.58;;;2.35;;
17564;SDS011;62994;52.126;5.596;2022-08-21T10:20:23;4.97;;;2.90;;
17564;SDS011;62994;52.126;5.596;2022-08-21T10:22:59;4.22;;;2.33;;
17564;SDS011;62994;52.126;5.596;2022-08-21T10:25:33;4.95;;;2.30;;
17564;SDS011;62994;52.126;5.596;2022-08-21T10:28:07;2.20;;;1.83;;
17564;SDS011;62994;52.126;5.596;2022-08-21T10:30:41;3.30;;;2.13;;
17564;SDS011;62994;52.126;5.596;2022-08-21T10:33:17;3.45;;;2.45;;
17564;SDS011;62994;52.126;5.596;2022-08-21T10:35:56;7.28;;;2.63;;
17564;SDS011;62994;52.126;5.596;2022-08-21T10:41:37;5.10;;;2.45;;
17564;SDS011;62994;52.126;5.596;2022-08-21T10:44:30;4.75;;;2.58;;
17564;SDS011;62994;52.126;5.596;2022-08-21T10:47:04;6.80;;;2.78;;
17564;SDS011;62994;52.126;5.596;2022-08-21T10:49:38;3.58;;;2.25;;
17564;SDS011;62994;52.126;5.596;2022-08-21T10:52:19;4.80;;;2.42;;
17564;SDS011;62994;52.126;5.596;2022-08-21T10:54:55;6.10;;;2.60;;
17564;SDS011;62994;52.126;5.596;2022-08-21T10:57:27;4.00;;;2.35;;
17564;SDS011;62994;52.126;5.596;2022-08-21T11:00:00;4.78;;;2.58;;
17564;SDS011;62994;52.126;5.596;2022-08-21T11:02:33;6.10;;;2.30;;
17564;SDS011;62994;52.126;5.596;2022-08-21T11:05:06;6.30;;;2.63;;
17564;SDS011;62994;52.126;5.596;2022-08-21T11:07:44;2.83;;;2.10;;
17564;SDS011;62994;52.126;5.596;2022-08-21T11:10:16;4.15;;;2.20;;
17564;SDS011;62994;52.126;5.596;2022-08-21T11:12:47;6.15;;;2.67;;
17564;SDS011;62994;52.126;5.596;2022-08-21T11:15:29;6.53;;;2.85;;
17564;SDS011;62994;52.126;5.596;2022-08-21T11:18:03;4.80;;;2.45;;
17564;SDS011;62994;52.126;5.596;2022-08-21T11:20:42;5.28;;;2.63;;
17564;SDS011;62994;52.126;5.596;2022-08-21T11:23:17;4.32;;;2.42;;
17564;SDS011;62994;52.126;5.596;2022-08-21T11:25:52;2.72;;;2.13;;
17564;SDS011;62994;52.126;5.596;2022-08-21T11:28:25;3.13;;;2.13;;
17564;SDS011;62994;52.126;5.596;2022-08-21T11:30:58;5.93;;;2.08;;
17564;SDS011;62994;52.126;5.596;2022-08-21T11:33:42;6.95;;;2.67;;
17564;SDS011;62994;52.126;5.596;2022-08-21T11:36:19;6.50;;;2.30;;
17564;SDS011;62994;52.126;5.596;2022-08-21T11:38:56;6.22;;;2.45;;
17564;SDS011;62994;52.126;5.596;2022-08-21T11:41:29;4.07;;;2.10;;
17564;SDS011;62994;52.126;5.596;2022-08-21T11:44:02;3.58;;;1.85;;
17564;SDS011;62994;52.126;5.596;2022-08-21T11:46:38;4.32;;;2.28;;
17564;SDS011;62994;52.126;5.596;2022-08-21T11:49:23;3.47;;;2.20;;
17564;SDS011;62994;52.126;5.596;2022-08-21T11:52:03;5.47;;;1.73;;
17564;SDS011;62994;52.126;5.596;2022-08-21T11:54:38;4.20;;;1.90;;
17564;SDS011;62994;52.126;5.596;2022-08-21T11:57:13;4.03;;;1.98;;
17564;SDS011;62994;52.126;5.596;2022-08-21T11:59:45;2.90;;;1.63;;
17564;SDS011;62994;52.126;5.596;2022-08-21T12:02:17;1.85;;;1.65;;
17564;SDS011;62994;52.126;5.596;2022-08-21T12:04:47;5.07;;;2.20;;
17564;SDS011;62994;52.126;5.596;2022-08-21T12:07:29;2.30;;;1.75;;
17564;SDS011;62994;52.126;5.596;2022-08-21T12:10:02;3.88;;;1.90;;
17564;SDS011;62994;52.126;5.596;2022-08-21T12:12:34;2.03;;;1.83;;
17564;SDS011;62994;52.126;5.596;2022-08-21T12:15:05;2.30;;;1.92;;
17564;SDS011;62994;52.126;5.596;2022-08-21T12:17:54;2.65;;;1.90;;
17564;SDS011;62994;52.126;5.596;2022-08-21T12:23:17;3.70;;;2.15;;
17564;SDS011;62994;52.126;5.596;2022-08-21T12:26:00;5.35;;;1.98;;
17564;SDS011;62994;52.126;5.596;2022-08-21T12:28:36;3.42;;;1.90;;
17564;SDS011;62994;52.126;5.596;2022-08-21T12:31:16;2.35;;;1.60;;
17564;SDS011;62994;52.126;5.596;2022-08-21T12:33:47;2.67;;;1.92;;
17564;SDS011;62994;52.126;5.596;2022-08-21T12:36:19;2.15;;;1.95;;
17564;SDS011;62994;52.126;5.596;2022-08-21T12:38:51;2.95;;;1.83;;
17564;SDS011;62994;52.126;5.596;2022-08-21T12:41:24;4.90;;;2.00;;
17564;SDS011;62994;52.126;5.596;2022-08-21T12:43:57;4.22;;;2.00;;
17564;SDS011;62994;52.126;5.596;2022-08-21T12:46:28;3.30;;;1.95;;
17564;SDS011;62994;52.126;5.596;2022-08-21T12:49:01;4.30;;;2.15;;
17564;SDS011;62994;52.126;5.596;2022-08-21T12:51:46;3.00;;;1.92;;
17564;SDS011;62994;52.126;5.596;2022-08-21T12:54:22;3.22;;;1.75;;
17564;SDS011;62994;52.126;5.596;2022-08-21T12:56:59;3.22;;;2.03;;
17564;SDS011;62994;52.126;5.596;2022-08-21T12:59:27;3.90;;;2.60;;
17564;SDS011;62994;52.126;5.596;2022-08-21T13:01:55;2.20;;;2.03;;
17564;SDS011;62994;52.126;5.596;2022-08-21T13:04:26;3.17;;;2.25;;
17564;SDS011;62994;52.126;5.596;2022-08-21T13:07:04;5.45;;;2.38;;
17564;SDS011;62994;52.126;5.596;2022-08-21T13:09:36;5.22;;;2.08;;
17564;SDS011;62994;52.126;5.596;2022-08-21T13:12:11;2.80;;;2.20;;
17564;SDS011;62994;52.126;5.596;2022-08-21T13:14:40;4.32;;;1.90;;
17564;SDS011;62994;52.126;5.596;2022-08-21T13:17:11;3.95;;;2.20;;
17564;SDS011;62994;52.126;5.596;2022-08-21T13:19:41;3.70;;;1.65;;
17564;SDS011;62994;52.126;5.596;2022-08-21T13:22:18;3.10;;;1.80;;
17564;SDS011;62994;52.126;5.596;2022-08-21T13:24:46;3.55;;;2.08;;
17564;SDS011;62994;52.126;5.596;2022-08-21T13:27:23;2.55;;;1.90;;
17564;SDS011;62994;52.126;5.596;2022-08-21T13:30:05;2.50;;;2.08;;
17564;SDS011;62994;52.126;5.596;2022-08-21T13:32:35;2.72;;;1.83;;
17564;SDS011;62994;52.126;5.596;2022-08-21T13:35:10;3.90;;;2.38;;
17564;SDS011;62994;52.126;5.596;2022-08-21T13:37:43;3.40;;;1.90;;
17564;SDS011;62994;52.126;5.596;2022-08-21T13:40:17;7.07;;;2.30;;
17564;SDS011;62994;52.126;5.596;2022-08-21T13:42:52;3.50;;;1.75;;
17564;SDS011;62994;52.126;5.596;2022-08-21T13:45:22;3.60;;;1.77;;
17564;SDS011;62994;52.126;5.596;2022-08-21T13:47:51;3.28;;;1.98;;
17564;SDS011;62994;52.126;5.596;2022-08-21T13:50:20;6.68;;;2.10;;
17564;SDS011;62994;52.126;5.596;2022-08-21T13:52:54;3.90;;;2.10;;
17564;SDS011;62994;52.126;5.596;2022-08-21T13:55:25;2.00;;;1.50;;
17564;SDS011;62994;52.126;5.596;2022-08-21T13:58:01;2.95;;;1.45;;
17564;SDS011;62994;52.126;5.596;2022-08-21T14:00:30;4.57;;;2.13;;
17564;SDS011;62994;52.126;5.596;2022-08-21T14:03:02;3.35;;;1.90;;
17564;SDS011;62994;52.126;5.596;2022-08-21T14:05:33;2.95;;;1.95;;
17564;SDS011;62994;52.126;5.596;2022-08-21T14:08:04;3.42;;;2.10;;
17564;SDS011;62994;52.126;5.596;2022-08-21T14:10:35;3.58;;;2.45;;
17564;SDS011;62994;52.126;5.596;2022-08-21T14:13:15;4.78;;;2.67;;
17564;SDS011;62994;52.126;5.596;2022-08-21T14:16:03;3.47;;;2.03;;
17564;SDS011;62994;52.126;5.596;2022-08-21T14:18:45;3.67;;;2.00;;
17564;SDS011;62994;52.126;5.596;2022-08-21T14:21:13;4.28;;;1.98;;
17564;SDS011;62994;52.126;5.596;2022-08-21T14:23:59;3.05;;;2.70;;
17564;SDS011;62994;52.126;5.596;2022-08-21T14:26:29;3.55;;;2.80;;
17564;SDS011;62994;52.126;5.596;2022-08-21T14:28:59;3.95;;;1.70;;
17564;SDS011;62994;52.126;5.596;2022-08-21T14:31:28;2.63;;;2.00;;
17564;SDS011;62994;52.126;5.596;2022-08-21T14:33:57;3.28;;;2.28;;
17564;SDS011;62994;52.126;5.596;2022-08-21T14:36:26;2.50;;;2.17;;
17564;SDS011;62994;52.126;5.596;2022-08-21T14:38:53;3.67;;;2.30;;
17564;SDS011;62994;52.126;5.596;2022-08-21T14:41:22;4.63;;;2.15;;
17564;SDS011;62994;52.126;5.596;2022-08-21T14:43:52;3.20;;;2.10;;
17564;SDS011;62994;52.126;5.596;2022-08-21T14:46:23;2.40;;;2.17;;
17564;SDS011;62994;52.126;5.596;2022-08-21T14:48:51;4.25;;;2.50;;
17564;SDS011;62994;52.126;5.596;2022-08-21T14:51:19;2.85;;;2.53;;
17564;SDS011;62994;52.126;5.596;2022-08-21T14:53:46;5.07;;;2.55;;
17564;SDS011;62994;52.126;5.596;2022-08-21T14:56:13;2.53;;;2.28;;
17564;SDS011;62994;52.126;5.596;2022-08-21T14:58:42;3.65;;;2.00;;
17564;SDS011;62994;52.126;5.596;2022-08-21T15:01:11;3.13;;;2.00;;
17564;SDS011;62994;52.126;5.596;2022-08-21T15:03:41;4.53;;;2.58;;
17564;SDS011;62994;52.126;5.596;2022-08-21T15:06:08;2.70;;;2.50;;
17564;SDS011;62994;52.126;5.596;2022-08-21T15:08:37;2.53;;;2.05;;
17564;SDS011;62994;52.126;5.596;2022-08-21T15:11:05;4.10;;;2.17;;